Time;durP1;ratioP1;P1;durP2;ratioP2;P2;SDS_P1;SDS_P2;PMS_P1;PMS_P2;Temp;Humidity;BMP_temperature;BMP_pressure;BME280_temperature;BME280_humidity;BME280_pressure;Samples;Min_cycle;Max_cycle;Signal;HPM_P1;HPM_P2
2022/08/11 00:01:06;;;;;;;3.80;1.98;;;18.10;71.00;;;;;;4417195;32;20002;-69
2022/08/11 00:03:34;;;;;;;2.87;1.67;;;18.20;70.50;;;;;;4424785;32;20126;-69
2022/08/11 00:06:02;;;;;;;3.42;1.95;;;18.20;72.10;;;;;;4424839;32;19974;-69
2022/08/11 00:08:31;;;;;;;4.22;1.58;;;17.80;73.80;;;;;;4424702;32;19993;-69
2022/08/11 00:11:00;;;;;;;2.00;1.70;;;17.60;74.50;;;;;;4424733;32;20038;-69
2022/08/11 00:13:35;;;;;;;3.08;1.75;;;17.60;74.60;;;;;;4424668;32;20051;-69
2022/08/11 00:16:03;;;;;;;2.22;1.90;;;17.40;76.60;;;;;;4424585;32;20023;-69
2022/08/11 00:18:38;;;;;;;3.92;1.87;;;17.40;74.90;;;;;;4424538;32;19997;-69
2022/08/11 00:21:06;;;;;;;4.30;2.20;;;17.20;75.70;;;;;;4424801;32;19965;-69
2022/08/11 00:23:34;;;;;;;3.53;1.75;;;17.30;75.90;;;;;;4424520;32;19979;-69
2022/08/11 00:26:06;;;;;;;2.62;1.60;;;17.40;74.70;;;;;;4424856;32;19995;-69
2022/08/11 00:28:35;;;;;;;2.62;1.80;;;17.50;75.50;;;;;;4424282;32;19988;-69
2022/08/11 00:31:06;;;;;;;4.57;2.25;;;17.30;76.30;;;;;;4424673;32;19991;-69
2022/08/11 00:33:37;;;;;;;3.45;2.35;;;17.30;75.50;;;;;;4423047;32;20028;-69
2022/08/11 00:36:06;;;;;;;3.25;1.70;;;17.20;77.20;;;;;;4423492;32;20043;-69
2022/08/11 00:38:36;;;;;;;3.28;1.77;;;17.10;77.90;;;;;;4422183;32;19994;-69
2022/08/11 00:41:14;;;;;;;2.50;1.75;;;17.10;76.00;;;;;;4422091;32;19980;-69
2022/08/11 00:44:18;;;;;;;2.35;1.90;;;17.20;77.60;;;;;;4422129;32;20182;-69
2022/08/11 00:46:57;;;;;;;3.28;1.77;;;17.10;77.90;;;;;;4422072;32;19994;-69
2022/08/11 00:49:41;;;;;;;3.85;2.05;;;16.60;78.80;;;;;;4422127;32;19975;-69
2022/08/11 00:52:17;;;;;;;3.60;1.90;;;16.60;79.90;;;;;;4422097;32;19974;-69
2022/08/11 00:55:13;;;;;;;3.17;2.00;;;16.50;80.60;;;;;;4422046;32;19972;-69
2022/08/11 00:58:09;;;;;;;2.95;1.90;;;16.50;80.80;;;;;;4417031;32;19993;-69
2022/08/11 01:01:05;;;;;;;2.50;1.80;;;16.50;80.50;;;;;;4422083;32;19991;-69
2022/08/11 01:03:53;;;;;;;2.47;1.77;;;16.50;81.30;;;;;;4421570;32;19989;-69
2022/08/11 01:06:38;;;;;;;2.72;1.90;;;16.50;80.60;;;;;;4421937;32;19991;-69
2022/08/11 01:09:39;;;;;;;3.15;1.95;;;16.20;82.00;;;;;;4402610;32;19990;-69
2022/08/11 01:12:20;;;;;;;3.12;1.80;;;16.30;82.60;;;;;;4421752;32;19991;-69
2022/08/11 01:15:32;;;;;;;3.78;2.10;;;16.10;81.80;;;;;;4421755;32;20129;-69
2022/08/11 01:18:34;;;;;;;2.53;2.00;;;16.30;82.00;;;;;;4419909;32;20038;-69
2022/08/11 01:21:46;;;;;;;2.28;1.80;;;16.30;82.10;;;;;;4421639;32;20112;-69
2022/08/11 01:24:50;;;;;;;2.37;1.90;;;16.20;83.10;;;;;;4421531;32;20105;-69
2022/08/11 01:28:07;;;;;;;3.40;2.20;;;16.20;83.60;;;;;;4421514;32;20058;-69
2022/08/11 01:31:22;;;;;;;2.17;1.80;;;16.30;82.50;;;;;;4418795;32;19976;-68
2022/08/11 01:34:28;;;;;;;2.22;1.60;;;16.20;83.60;;;;;;4375393;32;20007;-68
2022/08/11 01:37:18;;;;;;;2.87;2.10;;;16.00;83.20;;;;;;4417196;32;20070;-69
2022/08/11 01:40:37;;;;;;;3.67;2.15;;;16.10;82.30;;;;;;4418343;32;19967;-69
2022/08/11 01:46:32;;;;;;;3.90;2.05;;;16.10;83.90;;;;;;4418805;32;19965;-69
2022/08/11 01:49:17;;;;;;;4.78;1.98;;;16.00;84.00;;;;;;4420277;32;19978;-69
2022/08/11 01:52:01;;;;;;;3.30;2.00;;;16.10;83.10;;;;;;4420058;32;19968;-69
2022/08/11 01:54:36;;;;;;;2.65;1.92;;;16.00;82.90;;;;;;4415284;32;19975;-69
2022/08/11 01:57:18;;;;;;;4.00;2.10;;;16.00;83.20;;;;;;4420519;32;19968;-69
2022/08/11 01:59:49;;;;;;;4.35;2.47;;;16.30;82.00;;;;;;4418087;32;19998;-68
2022/08/11 02:05:18;;;;;;;3.83;2.15;;;16.00;82.70;;;;;;4420485;32;19956;-69
2022/08/11 02:07:55;;;;;;;3.97;2.30;;;16.40;79.60;;;;;;4420785;32;19991;-69
2022/08/11 02:13:35;;;;;;;3.17;2.00;;;16.50;81.10;;;;;;4420849;32;20138;-68
2022/08/11 02:16:25;;;;;;;3.20;1.87;;;16.40;82.10;;;;;;4417835;32;20029;-68
2022/08/11 02:24:41;;;;;;;3.35;1.90;;;16.40;81.00;;;;;;4412466;32;20008;-68
2022/08/11 02:27:16;;;;;;;3.97;2.40;;;16.60;80.90;;;;;;4420625;32;19963;-68
2022/08/11 02:29:51;;;;;;;3.22;2.20;;;16.70;80.40;;;;;;4420623;32;20011;-68
2022/08/11 02:35:18;;;;;;;3.22;1.87;;;16.60;81.50;;;;;;4414346;32;19974;-68
2022/08/11 02:37:56;;;;;;;3.20;2.20;;;16.50;82.20;;;;;;4417604;32;19999;-68
2022/08/11 02:40:31;;;;;;;3.62;2.00;;;16.30;83.00;;;;;;4419858;32;20152;-68
2022/08/11 02:43:23;;;;;;;3.28;2.25;;;16.20;83.70;;;;;;4420322;32;19974;-68
2022/08/11 02:46:00;;;;;;;5.45;2.12;;;16.10;83.70;;;;;;4420297;32;20111;-68
2022/08/11 02:51:39;;;;;;;2.85;2.30;;;16.00;82.70;;;;;;4420120;32;19993;-68
2022/08/11 02:54:15;;;;;;;3.53;2.20;;;15.90;85.20;;;;;;4420369;32;19994;-69
2022/08/11 02:56:50;;;;;;;3.15;2.28;;;16.00;86.10;;;;;;4416575;32;20000;-68
2022/08/11 03:02:21;;;;;;;2.95;1.95;;;16.10;82.20;;;;;;4420121;32;19989;-68
2022/08/11 03:05:00;;;;;;;3.47;2.17;;;16.60;80.40;;;;;;4420036;32;20005;-68
2022/08/11 03:07:33;;;;;;;4.03;2.30;;;16.30;81.40;;;;;;4420077;32;20139;-68
2022/08/11 03:10:05;;;;;;;3.03;1.90;;;16.30;81.30;;;;;;4419846;32;19962;-68
2022/08/11 03:18:34;;;;;;;5.87;2.37;;;17.10;77.70;;;;;;4417934;32;19992;-68
2022/08/11 03:21:10;;;;;;;4.60;2.42;;;17.10;79.10;;;;;;4420010;32;19993;-68
2022/08/11 03:23:44;;;;;;;3.45;2.20;;;16.90;79.60;;;;;;4420023;32;19963;-68
2022/08/11 03:26:22;;;;;;;3.83;2.62;;;16.90;78.60;;;;;;4419954;32;19998;-68
2022/08/11 03:29:00;;;;;;;4.43;3.40;;;16.80;79.90;;;;;;4417737;32;19988;-68
2022/08/11 03:31:32;;;;;;;4.80;3.53;;;16.90;80.80;;;;;;4419946;32;19966;-68
2022/08/11 03:34:03;;;;;;;10.95;7.12;;;16.70;82.80;;;;;;4415767;32;19963;-68
2022/08/11 03:37:06;;;;;;;6.68;4.40;;;16.70;79.70;;;;;;4419969;32;19958;-68
2022/08/11 03:39:46;;;;;;;4.68;2.80;;;16.70;81.80;;;;;;4395543;32;20091;-68
2022/08/11 03:42:21;;;;;;;3.97;2.50;;;16.40;82.70;;;;;;4419813;32;20006;-68
2022/08/11 03:44:59;;;;;;;4.85;3.03;;;16.40;83.20;;;;;;4419975;32;20007;-68
2022/08/11 03:47:44;;;;;;;3.55;2.67;;;16.30;82.80;;;;;;4419864;32;19963;-68
2022/08/11 03:50:24;;;;;;;4.47;2.42;;;16.20;84.20;;;;;;4419843;32;19998;-68
2022/08/11 03:53:05;;;;;;;3.60;2.45;;;16.20;84.70;;;;;;4413311;32;20001;-68
2022/08/11 03:55:50;;;;;;;4.55;2.53;;;16.10;84.20;;;;;;4419733;32;19965;-68
2022/08/11 03:58:55;;;;;;;3.58;2.65;;;16.10;84.20;;;;;;4419906;32;19964;-68
2022/08/11 04:01:52;;;;;;;5.80;2.50;;;16.10;85.30;;;;;;4419658;32;19996;-68
2022/08/11 04:04:58;;;;;;;4.57;2.60;;;15.90;85.40;;;;;;4419189;32;19961;-68
2022/08/11 04:07:54;;;;;;;3.50;2.28;;;16.10;84.60;;;;;;4414455;32;19991;-68
2022/08/11 04:11:03;;;;;;;4.90;2.42;;;16.00;85.40;;;;;;4418579;32;19993;-68
2022/08/11 04:17:02;;;;;;;3.83;2.58;;;16.10;86.10;;;;;;4421630;32;19995;-68
2022/08/11 04:20:05;;;;;;;3.37;2.42;;;16.00;86.70;;;;;;4422461;32;19998;-68
2022/08/11 04:23:13;;;;;;;3.30;2.87;;;15.80;86.50;;;;;;4420089;32;19995;-68
2022/08/11 04:26:13;;;;;;;4.60;2.60;;;15.80;86.80;;;;;;4418670;32;19976;-68
2022/08/11 04:28:56;;;;;;;4.32;2.70;;;15.80;87.20;;;;;;4422586;32;19968;-68
2022/08/11 04:31:37;;;;;;;5.03;2.60;;;15.80;88.20;;;;;;4422619;32;19989;-68
2022/08/11 04:34:15;;;;;;;3.43;2.63;;;15.70;86.00;;;;;;4419514;32;19979;-68
2022/08/11 04:40:10;;;;;;;6.03;2.62;;;15.80;87.80;;;;;;4415469;32;20041;-67
2022/08/11 04:43:19;;;;;;;4.30;2.92;;;15.80;87.60;;;;;;4421521;32;19952;-67
2022/08/11 04:46:16;;;;;;;5.40;2.62;;;15.80;87.00;;;;;;4421926;32;19954;-67
2022/08/11 05:01:41;;;;;;;5.05;2.85;;;15.70;88.00;;;;;;4399399;32;19968;-68
2022/08/11 05:07:35;;;;;;;6.82;3.00;;;15.90;88.90;;;;;;4421779;32;19972;-68
2022/08/11 05:10:22;;;;;;;3.45;2.60;;;15.90;89.20;;;;;;4420741;32;19974;-68
2022/08/11 05:12:54;;;;;;;5.30;2.78;;;16.10;87.40;;;;;;4415285;32;20026;-68
2022/08/11 05:35:28;;;;;;;4.45;3.22;;;16.20;88.60;;;;;;4421591;32;19977;-68
2022/08/11 05:57:30;;;;;;;5.80;3.37;;;18.80;79.90;;;;;;4420545;32;20040;-69
2022/08/11 06:00:00;;;;;;;7.85;3.40;;;19.80;76.70;;;;;;4421232;32;20011;-69
2022/08/11 06:02:28;;;;;;;4.28;2.80;;;20.90;74.20;;;;;;4421117;32;19960;-69
2022/08/11 06:04:56;;;;;;;5.95;2.80;;;21.00;72.00;;;;;;4406318;32;19972;-69
2022/08/11 06:07:28;;;;;;;4.55;2.90;;;22.00;71.10;;;;;;4421086;32;19963;-69
2022/08/11 06:09:57;;;;;;;5.85;3.37;;;22.50;69.70;;;;;;4421136;32;19963;-69
2022/08/11 06:12:28;;;;;;;5.20;3.00;;;23.60;66.80;;;;;;4420928;32;20003;-69
2022/08/11 06:14:56;;;;;;;4.90;3.20;;;24.50;64.80;;;;;;4421153;32;19962;-69
2022/08/11 06:17:24;;;;;;;6.05;2.70;;;24.90;61.50;;;;;;4420968;32;19960;-69
2022/08/11 06:19:56;;;;;;;4.35;2.65;;;25.90;60.70;;;;;;4420927;32;20002;-69
2022/08/11 06:22:23;;;;;;;5.45;2.72;;;26.10;58.60;;;;;;4420963;32;20001;-69
2022/08/11 06:24:56;;;;;;;4.22;2.83;;;27.00;58.70;;;;;;4420872;32;20020;-69
2022/08/11 06:27:25;;;;;;;4.95;2.87;;;26.90;58.70;;;;;;4419910;32;20026;-68
2022/08/11 06:29:54;;;;;;;5.35;2.87;;;26.50;59.60;;;;;;4420796;32;19963;-69
2022/08/11 06:32:28;;;;;;;4.65;2.83;;;25.40;61.90;;;;;;4420685;32;19990;-69
2022/08/11 06:35:04;;;;;;;4.12;2.90;;;26.10;59.90;;;;;;4418952;32;19985;-69
2022/08/11 06:37:45;;;;;;;6.75;3.17;;;25.70;59.20;;;;;;4420548;32;20025;-68
2022/08/11 06:40:26;;;;;;;4.68;2.37;;;25.80;60.40;;;;;;4420715;32;19963;-68
2022/08/11 06:42:58;;;;;;;4.80;3.37;;;25.60;61.50;;;;;;4420679;32;20102;-69
2022/08/11 06:45:34;;;;;;;4.00;2.60;;;25.50;61.80;;;;;;4420574;32;19961;-69
2022/08/11 06:48:01;;;;;;;4.12;2.45;;;25.70;60.60;;;;;;4420877;32;20105;-69
2022/08/11 06:53:18;;;;;;;5.53;3.03;;;26.90;58.90;;;;;;4417762;32;19985;-69
2022/08/11 07:01:33;;;;;;;5.62;3.00;;;27.30;58.30;;;;;;4416624;32;19975;-69
2022/08/11 07:04:05;;;;;;;6.90;3.40;;;26.60;59.80;;;;;;4420369;32;19982;-68
2022/08/11 07:15:40;;;;;;;5.70;2.53;;;26.00;61.60;;;;;;4420390;32;19984;-68
2022/08/11 07:15:55;;;;;;;5.60;2.90;;;28.50;53.50;;;;;;4420319;32;20027;-69
2022/08/11 07:29:44;;;;;;;4.60;2.20;;;29.40;51.50;;;;;;4420245;32;19975;-69
2022/08/11 07:32:16;;;;;;;7.53;2.58;;;29.60;51.50;;;;;;4420019;32;20018;-70
2022/08/11 07:34:52;;;;;;;6.40;2.60;;;29.40;55.50;;;;;;4420255;32;19998;-70
2022/08/11 07:37:20;;;;;;;4.30;2.70;;;30.10;54.60;;;;;;4410901;32;19961;-68
2022/08/11 07:39:48;;;;;;;5.50;2.40;;;30.10;52.90;;;;;;4420054;32;20146;-68
2022/08/11 07:42:22;;;;;;;2.70;2.08;;;29.50;50.00;;;;;;4419983;32;20130;-68
2022/08/11 07:53:08;;;;;;;3.30;2.17;;;30.40;48.90;;;;;;4422928;32;20004;-68
2022/08/11 07:55:37;;;;;;;3.87;2.22;;;30.50;49.90;;;;;;4423077;32;20184;-68
2022/08/11 08:20:13;;;;;;;5.72;2.42;;;32.30;45.10;;;;;;4419110;32;19972;-69
2022/08/11 08:22:41;;;;;;;5.17;2.37;;;33.30;42.80;;;;;;4418518;32;19995;-69
2022/08/11 08:25:09;;;;;;;3.53;2.30;;;31.10;44.20;;;;;;4422635;32;20015;-69
2022/08/11 08:27:38;;;;;;;2.37;2.10;;;30.50;45.20;;;;;;4422460;32;20134;-69
2022/08/11 08:32:51;;;;;;;5.10;2.37;;;30.40;45.50;;;;;;4418037;32;19985;-69
2022/08/11 08:35:19;;;;;;;3.05;2.20;;;31.20;45.90;;;;;;4420521;32;19998;-69
2022/08/11 08:37:49;;;;;;;7.37;2.17;;;31.50;46.70;;;;;;4422348;32;20003;-69
2022/08/11 08:40:16;;;;;;;3.33;2.00;;;31.50;45.20;;;;;;4422404;32;20142;-69
2022/08/11 08:42:50;;;;;;;2.28;1.90;;;31.70;44.50;;;;;;4422385;32;20117;-69
2022/08/11 08:45:17;;;;;;;6.55;2.25;;;31.30;44.80;;;;;;4422499;32;19965;-69
2022/08/11 08:47:48;;;;;;;3.15;2.10;;;32.00;46.50;;;;;;4422244;32;19967;-69
2022/08/11 08:50:18;;;;;;;2.97;2.15;;;31.10;43.70;;;;;;4422081;32;20030;-69
2022/08/11 08:52:52;;;;;;;3.30;2.17;;;31.60;44.20;;;;;;4422123;32;20147;-69
2022/08/11 08:55:20;;;;;;;4.35;2.05;;;32.90;42.70;;;;;;4422136;32;19996;-69
2022/08/11 08:57:49;;;;;;;3.75;2.03;;;32.60;44.80;;;;;;4421492;32;19994;-69
2022/08/11 09:00:17;;;;;;;2.25;1.80;;;33.30;42.60;;;;;;4422077;32;19972;-69
2022/08/11 09:02:45;;;;;;;3.83;2.37;;;33.20;42.30;;;;;;4422061;32;19957;-69
2022/08/11 09:05:12;;;;;;;3.42;1.85;;;32.30;42.60;;;;;;4419754;32;19989;-69
2022/08/11 09:07:39;;;;;;;5.82;2.65;;;31.20;44.30;;;;;;4421969;32;20016;-69
2022/08/11 09:10:09;;;;;;;3.62;1.80;;;31.90;43.50;;;;;;4421902;32;19968;-68
2022/08/11 09:12:39;;;;;;;3.60;2.17;;;31.60;42.80;;;;;;4422013;32;19965;-69
2022/08/11 09:15:10;;;;;;;3.05;2.28;;;31.70;42.60;;;;;;4421750;32;19969;-69
2022/08/11 09:17:39;;;;;;;3.97;1.90;;;32.40;43.50;;;;;;4421821;32;19974;-67
2022/08/11 09:20:08;;;;;;;3.72;2.03;;;33.00;42.00;;;;;;4421692;32;19968;-69
2022/08/11 09:28:18;;;;;;;3.00;1.83;;;33.00;39.20;;;;;;4421707;32;19982;-69
2022/08/11 09:30:52;;;;;;;4.47;2.00;;;34.10;41.40;;;;;;4421723;32;19993;-69
2022/08/11 09:33:20;;;;;;;5.07;2.05;;;33.20;42.40;;;;;;4421473;32;19994;-69
2022/08/11 09:35:49;;;;;;;3.70;2.12;;;33.50;41.80;;;;;;4421620;32;20029;-69
2022/08/11 09:41:05;;;;;;;3.17;1.80;;;34.80;41.00;;;;;;4421139;32;19967;-69
2022/08/11 09:46:25;;;;;;;2.87;1.90;;;35.10;39.20;;;;;;4421420;32;20022;-69
2022/08/11 09:48:55;;;;;;;8.75;2.37;;;35.10;38.80;;;;;;4421401;32;19997;-69
2022/08/11 09:51:23;;;;;;;3.87;2.00;;;35.10;39.00;;;;;;4421308;32;20008;-69
2022/08/11 09:53:50;;;;;;;2.85;1.90;;;33.70;40.20;;;;;;4420485;32;20012;-69
2022/08/11 09:59:07;;;;;;;3.97;2.03;;;34.20;40.50;;;;;;4421248;32;19976;-69
2022/08/11 10:01:41;;;;;;;4.05;2.08;;;33.30;40.60;;;;;;4421122;32;20060;-69
2022/08/11 10:04:14;;;;;;;3.87;1.90;;;33.80;40.50;;;;;;4421209;32;19963;-68
2022/08/11 10:09:26;;;;;;;2.92;1.75;;;37.50;39.10;;;;;;4420279;32;20150;-69
2022/08/11 10:11:57;;;;;;;5.37;1.95;;;38.10;37.30;;;;;;4420691;32;19995;-69
2022/08/11 10:17:26;;;;;;;12.10;3.05;;;34.60;38.20;;;;;;4374940;32;20034;-69
2022/08/11 10:19:56;;;;;;;3.78;1.83;;;33.60;39.40;;;;;;4369717;32;20021;-69
2022/08/11 10:27:57;;;;;;;2.85;2.62;;;34.20;38.30;;;;;;4420811;32;19982;-69
2022/08/11 10:35:57;;;;;;;3.20;1.70;;;37.20;35.80;;;;;;4419096;32;19965;-70
2022/08/11 10:38:26;;;;;;;2.35;1.95;;;36.00;36.70;;;;;;4420642;32;19984;-69
2022/08/11 10:43:39;;;;;;;4.00;2.17;;;33.90;38.50;;;;;;4420003;32;20032;-70
2022/08/11 10:48:51;;;;;;;3.15;1.98;;;31.30;40.60;;;;;;4418839;32;19905;-69
2022/08/11 10:51:19;;;;;;;3.00;1.90;;;31.30;41.00;;;;;;4420553;32;19992;-68
2022/08/11 10:59:26;;;;;;;3.17;2.10;;;31.00;41.00;;;;;;4420364;32;19967;-69
2022/08/11 11:01:54;;;;;;;2.33;1.80;;;30.80;41.50;;;;;;4414392;32;20020;-69
2022/08/11 11:04:28;;;;;;;2.28;1.75;;;34.20;39.70;;;;;;4420372;32;20002;-69
2022/08/11 11:07:03;;;;;;;4.80;2.05;;;33.90;38.60;;;;;;4418918;32;20005;-69
2022/08/11 11:09:31;;;;;;;2.40;1.73;;;34.30;38.40;;;;;;4420334;32;19990;-69
2022/08/11 11:18:00;;;;;;;3.05;1.83;;;35.30;37.50;;;;;;4420174;32;20080;-69
2022/08/11 11:20:30;;;;;;;3.80;1.87;;;35.60;38.30;;;;;;4419474;32;19991;-68
2022/08/11 11:23:03;;;;;;;5.55;2.00;;;37.00;37.00;;;;;;4420183;32;19959;-69
2022/08/11 11:26:05;;;;;;;3.05;2.00;;;36.40;36.70;;;;;;4419643;32;19967;-69
2022/08/11 11:28:49;;;;;;;1.80;1.62;;;36.60;36.90;;;;;;4418393;32;19961;-69
2022/08/11 11:31:28;;;;;;;2.37;1.70;;;37.20;36.20;;;;;;4420171;32;19981;-69
2022/08/11 11:34:11;;;;;;;2.55;1.90;;;33.00;37.80;;;;;;4417777;32;19961;-69
2022/08/11 11:36:45;;;;;;;2.55;1.87;;;34.30;38.30;;;;;;4420228;32;19989;-69
2022/08/11 11:39:12;;;;;;;6.57;1.98;;;35.20;37.90;;;;;;4420056;32;19993;-68
2022/08/11 11:41:40;;;;;;;4.70;2.00;;;38.10;35.40;;;;;;4420078;32;19993;-69
2022/08/11 11:44:08;;;;;;;2.20;1.85;;;37.70;35.30;;;;;;4419965;32;19963;-69
2022/08/11 11:46:36;;;;;;;2.65;2.00;;;36.50;36.10;;;;;;4420033;32;20146;-69
2022/08/11 11:49:07;;;;;;;3.33;2.00;;;34.70;37.20;;;;;;4420198;32;19979;-69
2022/08/11 11:51:36;;;;;;;3.37;1.80;;;34.20;39.10;;;;;;4419970;32;19966;-69
2022/08/11 11:54:04;;;;;;;2.92;1.98;;;35.80;37.10;;;;;;4419911;32;19954;-68
2022/08/11 11:56:32;;;;;;;4.28;2.20;;;34.30;38.70;;;;;;4419934;32;19988;-69
2022/08/11 12:01:45;;;;;;;4.07;2.22;;;35.20;37.20;;;;;;4416488;32;19991;-69
2022/08/11 12:04:15;;;;;;;5.80;2.00;;;33.60;38.50;;;;;;4419898;32;19958;-68
2022/08/11 12:06:42;;;;;;;2.28;1.90;;;33.20;39.50;;;;;;4419890;32;20020;-69
2022/08/11 12:09:14;;;;;;;4.82;2.40;;;33.00;38.90;;;;;;4419552;32;20115;-68
2022/08/11 12:14:27;;;;;;;2.95;2.00;;;31.30;40.30;;;;;;4419613;32;19979;-69
2022/08/11 12:16:57;;;;;;;2.03;1.80;;;31.50;40.80;;;;;;4419626;32;19994;-69
2022/08/11 12:19:27;;;;;;;3.20;2.00;;;31.30;39.90;;;;;;4419543;32;19973;-69
2022/08/11 12:27:27;;;;;;;2.17;1.80;;;31.40;40.90;;;;;;4419524;32;19968;-69
2022/08/11 12:29:57;;;;;;;5.47;2.20;;;31.60;40.30;;;;;;4419761;32;19991;-69
2022/08/11 12:32:28;;;;;;;2.35;1.77;;;31.60;40.70;;;;;;4419688;32;19992;-69
2022/08/11 12:34:56;;;;;;;3.75;2.30;;;31.50;39.80;;;;;;4415717;32;19994;-69
2022/08/11 12:37:28;;;;;;;2.90;1.83;;;31.70;40.70;;;;;;4422324;32;19994;-69
2022/08/11 12:45:33;;;;;;;3.58;2.00;;;31.40;39.20;;;;;;4420942;32;19964;-69
2022/08/11 12:53:52;;;;;;;4.65;2.12;;;31.40;39.90;;;;;;4402896;32;19969;-69
2022/08/11 13:04:58;;;;;;;3.35;1.95;;;31.70;39.70;;;;;;4421988;32;19986;-69
2022/08/11 13:07:26;;;;;;;2.10;1.83;;;31.60;39.90;;;;;;4420693;32;19961;-68
2022/08/11 13:09:53;;;;;;;3.22;1.90;;;31.90;39.90;;;;;;4422237;32;19993;-68
2022/08/11 13:15:11;;;;;;;3.60;2.12;;;32.50;40.90;;;;;;4421880;32;19972;-69
2022/08/11 13:17:39;;;;;;;5.55;2.03;;;32.40;39.60;;;;;;4421646;32;20099;-69
2022/08/11 13:20:11;;;;;;;3.03;2.00;;;31.70;40.30;;;;;;4421473;32;20006;-69
2022/08/11 13:22:39;;;;;;;2.67;2.00;;;31.90;40.20;;;;;;4421671;32;19958;-69
2022/08/11 13:25:07;;;;;;;3.05;2.05;;;31.30;41.30;;;;;;4421639;32;20159;-69
2022/08/11 13:27:35;;;;;;;2.47;1.90;;;31.30;41.60;;;;;;4421596;32;20076;-69
2022/08/11 13:32:49;;;;;;;4.22;2.05;;;31.40;40.20;;;;;;4418455;32;19965;-69
2022/08/11 13:35:18;;;;;;;7.10;2.12;;;31.60;39.80;;;;;;4421473;32;20002;-68
2022/08/11 13:37:47;;;;;;;3.75;2.30;;;31.40;39.20;;;;;;4421575;32;19993;-69
2022/08/11 13:40:16;;;;;;;3.67;1.80;;;31.60;39.60;;;;;;4421420;32;20102;-69
2022/08/11 13:42:44;;;;;;;2.78;1.90;;;31.70;39.70;;;;;;4421483;32;19991;-69
2022/08/11 13:45:11;;;;;;;5.80;2.00;;;31.80;40.90;;;;;;4421236;32;19988;-68
2022/08/11 13:47:40;;;;;;;4.00;2.22;;;31.50;40.70;;;;;;4421312;32;20015;-69
2022/08/11 13:50:08;;;;;;;3.28;2.03;;;31.10;40.00;;;;;;4421321;32;19993;-69
2022/08/11 13:52:39;;;;;;;2.87;2.00;;;31.00;41.30;;;;;;4421590;32;19996;-68
2022/08/11 13:55:08;;;;;;;3.03;1.90;;;30.90;42.00;;;;;;4421327;32;19960;-69
2022/08/11 13:57:36;;;;;;;4.40;2.40;;;31.20;40.50;;;;;;4421080;32;19960;-68
2022/08/11 14:00:10;;;;;;;4.00;2.00;;;31.30;40.60;;;;;;4421209;32;19960;-69
2022/08/11 14:02:41;;;;;;;3.83;2.00;;;31.70;40.30;;;;;;4420638;32;19978;-68
2022/08/11 14:05:14;;;;;;;4.22;1.75;;;31.60;40.10;;;;;;4421284;32;20150;-68
2022/08/11 14:07:47;;;;;;;4.50;2.10;;;31.80;41.60;;;;;;4420917;32;19958;-69
2022/08/11 14:10:17;;;;;;;3.10;1.70;;;31.90;41.80;;;;;;4421094;32;20103;-68
2022/08/11 14:15:36;;;;;;;4.37;2.15;;;31.30;39.90;;;;;;4418606;32;19965;-69
2022/08/11 14:18:06;;;;;;;4.72;2.10;;;31.40;41.00;;;;;;4420713;32;20077;-69
2022/08/11 14:23:19;;;;;;;3.35;2.20;;;30.90;41.00;;;;;;4420089;32;19959;-69
2022/08/11 14:28:27;;;;;;;3.58;2.05;;;31.20;40.50;;;;;;4417377;32;19965;-69
2022/08/11 14:30:56;;;;;;;2.42;1.90;;;31.20;40.50;;;;;;4420497;32;19962;-69
2022/08/11 14:33:23;;;;;;;2.53;1.92;;;30.90;40.00;;;;;;4420152;32;20031;-68
2022/08/11 14:35:50;;;;;;;3.45;2.00;;;31.20;40.40;;;;;;4420461;32;19994;-68
2022/08/11 14:38:19;;;;;;;5.87;2.10;;;31.40;40.00;;;;;;4420405;32;20021;-69
2022/08/11 14:49:01;;;;;;;2.40;2.00;;;30.90;41.30;;;;;;4415128;32;20065;-69
2022/08/11 14:51:28;;;;;;;3.17;2.17;;;31.00;40.40;;;;;;4420051;32;20004;-69
2022/08/11 14:56:34;;;;;;;4.15;2.10;;;31.00;40.10;;;;;;4420188;32;19998;-69
2022/08/11 14:56:45;;;;;;;2.15;1.80;;;30.90;40.10;;;;;;4418735;32;19961;-69
2022/08/11 14:59:13;;;;;;;4.28;2.03;;;30.70;40.90;;;;;;4420096;32;19994;-69
2022/08/11 15:04:25;;;;;;;5.20;1.90;;;30.80;39.30;;;;;;4420120;32;19994;-68
2022/08/11 15:06:52;;;;;;;4.07;1.95;;;30.80;40.10;;;;;;4420094;32;20028;-69
2022/08/11 15:09:21;;;;;;;4.47;2.30;;;30.90;41.00;;;;;;4420079;32;19979;-68
2022/08/11 15:17:17;;;;;;;3.50;2.10;;;31.10;40.90;;;;;;4420019;32;20019;-69
2022/08/11 15:25:12;;;;;;;4.15;2.17;;;30.70;40.90;;;;;;4414867;32;20048;-69
2022/08/11 15:38:53;;;;;;;2.58;2.00;;;31.20;40.90;;;;;;4400545;32;20062;-69
2022/08/11 15:47:02;;;;;;;3.25;1.77;;;30.90;40.60;;;;;;4419785;32;19963;-69
2022/08/11 15:49:33;;;;;;;3.47;1.90;;;30.70;40.60;;;;;;4419772;32;19961;-68
2022/08/11 15:52:06;;;;;;;3.50;1.80;;;30.80;40.30;;;;;;4419791;32;19963;-68
2022/08/11 15:54:35;;;;;;;4.50;1.85;;;30.90;42.20;;;;;;4419645;32;19999;-69
2022/08/11 15:57:05;;;;;;;3.95;2.17;;;30.90;40.70;;;;;;4419771;32;20028;-69
2022/08/11 16:05:09;;;;;;;2.83;1.70;;;30.60;41.20;;;;;;4416396;32;19962;-69
2022/08/11 16:07:38;;;;;;;2.80;1.90;;;31.00;40.30;;;;;;4420051;32;19975;-69
2022/08/11 16:10:09;;;;;;;5.43;2.08;;;30.80;39.90;;;;;;4417953;32;19991;-68
2022/08/11 16:12:39;;;;;;;;;;;30.70;40.40;;;;;;4422733;32;19970;-69
2022/08/11 16:17:59;;;;;;;3.58;1.85;;;30.70;40.60;;;;;;4416935;32;19967;-69
2022/08/11 16:20:28;;;;;;;3.58;1.65;;;30.60;40.60;;;;;;4422229;32;20125;-69
2022/08/11 16:23:01;;;;;;;2.92;1.77;;;30.60;41.20;;;;;;4422185;32;20024;-67
2022/08/11 16:25:29;;;;;;;2.55;2.00;;;30.40;41.00;;;;;;4414122;32;19988;-69
2022/08/11 16:28:01;;;;;;;4.68;2.30;;;30.40;41.00;;;;;;4422128;32;19963;-68
2022/08/11 16:30:30;;;;;;;2.90;1.90;;;30.30;41.70;;;;;;4422289;32;20046;-68
2022/08/11 16:33:00;;;;;;;3.62;2.45;;;30.30;41.00;;;;;;4422111;32;20050;-68
2022/08/11 16:41:00;;;;;;;4.40;2.50;;;30.20;41.00;;;;;;4420913;32;19990;-68
2022/08/11 16:49:18;;;;;;;3.25;2.10;;;30.00;41.50;;;;;;4402511;32;19976;-69
2022/08/11 16:51:45;;;;;;;2.65;1.95;;;30.00;41.20;;;;;;4421452;32;20002;-69
2022/08/11 16:54:13;;;;;;;3.47;1.75;;;29.90;41.20;;;;;;4421945;32;19961;-69
2022/08/11 16:56:43;;;;;;;2.78;1.92;;;29.90;41.30;;;;;;4414105;32;19999;-68
2022/08/11 16:59:17;;;;;;;3.60;1.67;;;29.80;41.30;;;;;;4416204;32;19963;-69
2022/08/11 17:01:48;;;;;;;3.60;1.73;;;29.80;41.50;;;;;;4421875;32;19965;-68
2022/08/11 17:18:38;;;;;;;2.50;2.00;;;29.70;42.30;;;;;;4417403;32;19972;-69
2022/08/11 17:21:03;;;;;;;2.37;2.00;;;29.70;42.10;;;;;;4421663;32;19968;-69
2022/08/11 17:26:24;;;;;;;3.50;1.87;;;29.60;42.70;;;;;;4416852;32;19971;-68
2022/08/11 17:28:55;;;;;;;3.00;2.10;;;29.40;42.20;;;;;;4418146;32;19972;-68
2022/08/11 17:36:54;;;;;;;4.35;2.00;;;29.30;42.40;;;;;;4421424;32;19979;-69
2022/08/11 17:39:28;;;;;;;7.32;2.37;;;29.20;43.30;;;;;;4421177;32;20136;-69
2022/08/11 17:50:24;;;;;;;3.85;1.70;;;28.90;42.80;;;;;;4421076;32;19968;-68
2022/08/11 18:01:11;;;;;;;6.55;2.33;;;28.70;43.20;;;;;;4416278;32;20000;-68
2022/08/11 18:03:40;;;;;;;2.95;2.00;;;28.60;43.50;;;;;;4420942;32;19993;-68
2022/08/11 18:06:09;;;;;;;4.35;2.10;;;28.50;43.60;;;;;;4420796;32;20102;-68
